sensor_id;sensor_type;location;lat;lon;timestamp;pressure;altitude;pressure_sealevel;temperature;humidity
43480;BME280;29067;35.492;-97.520;2023-01-04T00:01:36;96809.49;;;5.54;35.09
43480;BME280;29067;35.492;-97.520;2023-01-04T00:04:04;96811.61;;;5.74;35.18
43480;BME280;29067;35.492;-97.520;2023-01-04T00:06:32;96813.22;;;5.47;34.92
43480;BME280;29067;35.492;-97.520;2023-01-04T00:09:00;96814.16;;;4.82;35.40
43480;BME280;29067;35.492;-97.520;2023-01-04T00:11:28;96815.73;;;5.36;35.15
43480;BME280;29067;35.492;-97.520;2023-01-04T00:14:02;96807.28;;;6.09;34.66
43480;BME280;29067;35.492;-97.520;2023-01-04T00:16:30;96808.92;;;5.28;35.05
43480;BME280;29067;35.492;-97.520;2023-01-04T00:18:58;96805.15;;;6.58;34.34
43480;BME280;29067;35.492;-97.520;2023-01-04T00:21:28;96809.40;;;6.73;33.96
43480;BME280;29067;35.492;-97.520;2023-01-04T00:23:58;96824.00;;;4.98;34.97
43480;BME280;29067;35.492;-97.520;2023-01-04T00:26:28;96824.21;;;5.97;34.60
43480;BME280;29067;35.492;-97.520;2023-01-04T00:28:58;96831.03;;;5.61;35.00
43480;BME280;29067;35.492;-97.520;2023-01-04T00:31:27;96844.15;;;5.76;35.72
43480;BME280;29067;35.492;-97.520;2023-01-04T00:33:56;96842.70;;;7.07;34.97
43480;BME280;29067;35.492;-97.520;2023-01-04T00:36:26;96851.18;;;5.53;35.46
43480;BME280;29067;35.492;-97.520;2023-01-04T00:38:54;96859.57;;;5.33;36.15
43480;BME280;29067;35.492;-97.520;2023-01-04T00:41:24;96860.75;;;5.58;36.01
43480;BME280;29067;35.492;-97.520;2023-01-04T00:43:52;96862.04;;;4.26;36.93
43480;BME280;29067;35.492;-97.520;2023-01-04T00:46:20;96862.17;;;4.24;37.36
43480;BME280;29067;35.492;-97.520;2023-01-04T00:48:58;96859.54;;;4.65;37.35
43480;BME280;29067;35.492;-97.520;2023-01-04T00:51:33;96859.65;;;3.70;38.35
43480;BME280;29067;35.492;-97.520;2023-01-04T00:54:03;96867.91;;;4.33;37.67
43480;BME280;29067;35.492;-97.520;2023-01-04T00:56:33;96874.21;;;4.55;37.61
43480;BME280;29067;35.492;-97.520;2023-01-04T00:59:02;96871.36;;;4.48;37.87
43480;BME280;29067;35.492;-97.520;2023-01-04T01:01:36;96872.65;;;5.60;36.69
43480;BME280;29067;35.492;-97.520;2023-01-04T01:04:04;96876.18;;;5.09;37.27
43480;BME280;29067;35.492;-97.520;2023-01-04T01:06:33;96873.11;;;3.96;38.36
43480;BME280;29067;35.492;-97.520;2023-01-04T01:09:07;96872.29;;;4.10;38.55
43480;BME280;29067;35.492;-97.520;2023-01-04T01:11:35;96875.15;;;5.42;37.78
43480;BME280;29067;35.492;-97.520;2023-01-04T01:14:03;96874.27;;;4.05;37.56
43480;BME280;29067;35.492;-97.520;2023-01-04T01:16:33;96868.24;;;5.70;36.73
43480;BME280;29067;35.492;-97.520;2023-01-04T01:19:03;96872.34;;;5.45;37.41
43480;BME280;29067;35.492;-97.520;2023-01-04T01:21:32;96879.87;;;5.05;37.47
43480;BME280;29067;35.492;-97.520;2023-01-04T01:24:07;96878.16;;;5.79;36.34
43480;BME280;29067;35.492;-97.520;2023-01-04T01:26:37;96885.76;;;6.05;36.35
43480;BME280;29067;35.492;-97.520;2023-01-04T01:29:05;96893.14;;;4.33;37.75
43480;BME280;29067;35.492;-97.520;2023-01-04T01:31:38;96890.93;;;4.21;37.73
43480;BME280;29067;35.492;-97.520;2023-01-04T01:34:08;96894.97;;;5.17;37.84
43480;BME280;29067;35.492;-97.520;2023-01-04T01:36:36;96906.66;;;4.87;37.65
43480;BME280;29067;35.492;-97.520;2023-01-04T01:39:05;96907.85;;;4.52;37.56
43480;BME280;29067;35.492;-97.520;2023-01-04T01:41:35;96907.36;;;5.75;37.31
43480;BME280;29067;35.492;-97.520;2023-01-04T01:44:05;96916.42;;;6.08;36.34
43480;BME280;29067;35.492;-97.520;2023-01-04T01:46:36;96919.59;;;5.66;36.93
43480;BME280;29067;35.492;-97.520;2023-01-04T01:49:12;96915.03;;;6.79;35.96
43480;BME280;29067;35.492;-97.520;2023-01-04T01:51:47;96917.78;;;5.73;36.24
43480;BME280;29067;35.492;-97.520;2023-01-04T01:54:19;96910.79;;;5.88;36.66
43480;BME280;29067;35.492;-97.520;2023-01-04T01:56:51;96904.04;;;6.64;35.83
43480;BME280;29067;35.492;-97.520;2023-01-04T01:59:20;96904.77;;;8.09;35.21
43480;BME280;29067;35.492;-97.520;2023-01-04T02:01:49;96919.27;;;6.29;36.18
43480;BME280;29067;35.492;-97.520;2023-01-04T02:04:17;96924.65;;;5.09;37.05
43480;BME280;29067;35.492;-97.520;2023-01-04T02:06:48;96921.38;;;3.69;38.34
43480;BME280;29067;35.492;-97.520;2023-01-04T02:09:19;96921.92;;;3.45;38.95
43480;BME280;29067;35.492;-97.520;2023-01-04T02:11:47;96926.54;;;2.40;40.53
43480;BME280;29067;35.492;-97.520;2023-01-04T02:14:16;96934.76;;;2.02;41.68
43480;BME280;29067;35.492;-97.520;2023-01-04T02:16:57;96939.50;;;2.56;41.32
43480;BME280;29067;35.492;-97.520;2023-01-04T02:19:41;96951.33;;;2.87;41.63
43480;BME280;29067;35.492;-97.520;2023-01-04T02:23:41;96956.80;;;2.27;41.57
43480;BME280;29067;35.492;-97.520;2023-01-04T02:27:39;96952.67;;;3.68;41.36
43480;BME280;29067;35.492;-97.520;2023-01-04T02:31:22;96957.49;;;2.33;42.08
43480;BME280;29067;35.492;-97.520;2023-01-04T02:33:59;96954.59;;;2.48;41.99
43480;BME280;29067;35.492;-97.520;2023-01-04T02:36:36;96955.31;;;2.79;41.68
43480;BME280;29067;35.492;-97.520;2023-01-04T02:39:16;96957.90;;;1.24;43.73
43480;BME280;29067;35.492;-97.520;2023-01-04T02:41:53;96949.53;;;2.02;43.14
43480;BME280;29067;35.492;-97.520;2023-01-04T02:44:29;96951.01;;;1.98;43.71
43480;BME280;29067;35.492;-97.520;2023-01-04T02:47:03;96954.12;;;1.51;44.34
43480;BME280;29067;35.492;-97.520;2023-01-04T02:49:33;96955.78;;;1.54;43.72
43480;BME280;29067;35.492;-97.520;2023-01-04T02:52:01;96962.14;;;1.30;44.38
43480;BME280;29067;35.492;-97.520;2023-01-04T02:54:30;96963.90;;;1.30;44.21
43480;BME280;29067;35.492;-97.520;2023-01-04T02:57:13;96964.49;;;1.06;44.92
43480;BME280;29067;35.492;-97.520;2023-01-04T03:00:00;96965.22;;;1.86;44.31
43480;BME280;29067;35.492;-97.520;2023-01-04T03:02:47;96956.03;;;2.64;43.12
43480;BME280;29067;35.492;-97.520;2023-01-04T03:05:26;96963.58;;;1.24;44.64
43480;BME280;29067;35.492;-97.520;2023-01-04T03:08:03;96964.60;;;2.04;43.83
43480;BME280;29067;35.492;-97.520;2023-01-04T03:10:40;96965.45;;;1.84;43.80
43480;BME280;29067;35.492;-97.520;2023-01-04T03:13:16;96970.88;;;1.55;44.38
43480;BME280;29067;35.492;-97.520;2023-01-04T03:15:50;96969.45;;;2.39;43.13
43480;BME280;29067;35.492;-97.520;2023-01-04T03:18:23;96973.69;;;1.39;44.10
43480;BME280;29067;35.492;-97.520;2023-01-04T03:20:56;96976.00;;;1.02;44.95
43480;BME280;29067;35.492;-97.520;2023-01-04T03:23:29;96979.37;;;1.35;44.27
43480;BME280;29067;35.492;-97.520;2023-01-04T03:26:00;96978.87;;;1.41;44.45
43480;BME280;29067;35.492;-97.520;2023-01-04T03:28:33;96971.22;;;1.34;44.35
43480;BME280;29067;35.492;-97.520;2023-01-04T03:31:07;96966.90;;;1.24;44.17
43480;BME280;29067;35.492;-97.520;2023-01-04T03:33:37;96964.12;;;1.64;43.93
43480;BME280;29067;35.492;-97.520;2023-01-04T03:36:16;96955.18;;;2.33;43.35
43480;BME280;29067;35.492;-97.520;2023-01-04T03:38:51;96951.66;;;2.68;42.77
43480;BME280;29067;35.492;-97.520;2023-01-04T03:41:26;96960.30;;;1.30;43.73
43480;BME280;29067;35.492;-97.520;2023-01-04T03:44:03;96957.38;;;2.44;42.31
43480;BME280;29067;35.492;-97.520;2023-01-04T03:46:42;96963.25;;;3.39;41.18
43480;BME280;29067;35.492;-97.520;2023-01-04T03:49:17;96971.36;;;1.60;42.81
43480;BME280;29067;35.492;-97.520;2023-01-04T03:51:57;96966.63;;;2.52;42.14
43480;BME280;29067;35.492;-97.520;2023-01-04T03:54:32;96963.98;;;3.37;41.36
43480;BME280;29067;35.492;-97.520;2023-01-04T03:57:11;96971.05;;;2.00;42.40
43480;BME280;29067;35.492;-97.520;2023-01-04T03:59:45;96973.86;;;1.54;43.23
43480;BME280;29067;35.492;-97.520;2023-01-04T04:02:15;96972.57;;;-0.07;45.06
43480;BME280;29067;35.492;-97.520;2023-01-04T04:04:43;96967.04;;;1.21;44.03
43480;BME280;29067;35.492;-97.520;2023-01-04T04:07:12;96963.30;;;1.40;44.59
43480;BME280;29067;35.492;-97.520;2023-01-04T04:09:40;96962.31;;;0.29;46.18
43480;BME280;29067;35.492;-97.520;2023-01-04T04:12:08;96956.43;;;-0.28;46.58
43480;BME280;29067;35.492;-97.520;2023-01-04T04:14:36;96959.01;;;0.92;45.83
43480;BME280;29067;35.492;-97.520;2023-01-04T04:17:04;96955.84;;;0.89;45.68
43480;BME280;29067;35.492;-97.520;2023-01-04T04:19:32;96955.61;;;1.47;45.10
43480;BME280;29067;35.492;-97.520;2023-01-04T04:22:00;96952.29;;;-0.54;47.35
43480;BME280;29067;35.492;-97.520;2023-01-04T04:24:28;96948.56;;;0.87;46.12
43480;BME280;29067;35.492;-97.520;2023-01-04T04:26:56;96946.25;;;0.38;46.32
43480;BME280;29067;35.492;-97.520;2023-01-04T04:29:24;96951.40;;;1.53;45.53
43480;BME280;29067;35.492;-97.520;2023-01-04T04:32:02;96945.90;;;0.12;46.48
43480;BME280;29067;35.492;-97.520;2023-01-04T04:34:30;96946.95;;;0.89;45.55
43480;BME280;29067;35.492;-97.520;2023-01-04T04:37:00;96949.47;;;1.26;44.30
43480;BME280;29067;35.492;-97.520;2023-01-04T04:39:28;96948.81;;;2.14;43.57
43480;BME280;29067;35.492;-97.520;2023-01-04T04:41:56;96951.13;;;2.62;42.29
43480;BME280;29067;35.492;-97.520;2023-01-04T04:44:24;96965.55;;;0.78;44.91
43480;BME280;29067;35.492;-97.520;2023-01-04T04:46:52;96965.18;;;0.70;44.26
43480;BME280;29067;35.492;-97.520;2023-01-04T04:49:20;96970.98;;;1.22;44.12
43480;BME280;29067;35.492;-97.520;2023-01-04T04:51:48;96973.89;;;1.72;43.96
43480;BME280;29067;35.492;-97.520;2023-01-04T04:54:18;96977.87;;;1.11;44.11
43480;BME280;29067;35.492;-97.520;2023-01-04T04:56:47;96983.60;;;0.47;44.91
43480;BME280;29067;35.492;-97.520;2023-01-04T04:59:16;96985.07;;;-0.04;45.17
43480;BME280;29067;35.492;-97.520;2023-01-04T05:01:44;96987.31;;;0.44;44.14
43480;BME280;29067;35.492;-97.520;2023-01-04T05:04:12;96980.95;;;0.73;43.51
43480;BME280;29067;35.492;-97.520;2023-01-04T05:06:40;96977.58;;;0.94;44.83
43480;BME280;29067;35.492;-97.520;2023-01-04T05:09:09;96980.85;;;0.15;45.24
43480;BME280;29067;35.492;-97.520;2023-01-04T05:11:42;96981.37;;;-0.02;45.59
43480;BME280;29067;35.492;-97.520;2023-01-04T05:14:11;96977.74;;;-0.35;46.33
43480;BME280;29067;35.492;-97.520;2023-01-04T05:16:39;96978.66;;;0.31;45.90
43480;BME280;29067;35.492;-97.520;2023-01-04T05:19:14;96983.73;;;0.70;45.07
43480;BME280;29067;35.492;-97.520;2023-01-04T05:21:42;96990.34;;;-0.81;48.17
43480;BME280;29067;35.492;-97.520;2023-01-04T05:24:15;96989.87;;;1.11;44.96
43480;BME280;29067;35.492;-97.520;2023-01-04T05:26:42;96995.75;;;0.93;45.37
43480;BME280;29067;35.492;-97.520;2023-01-04T05:29:10;96999.08;;;0.10;45.97
43480;BME280;29067;35.492;-97.520;2023-01-04T05:31:39;96995.77;;;-0.12;46.56
43480;BME280;29067;35.492;-97.520;2023-01-04T05:34:07;97002.69;;;-0.41;46.07
43480;BME280;29067;35.492;-97.520;2023-01-04T05:36:41;97004.34;;;-0.60;47.41
43480;BME280;29067;35.492;-97.520;2023-01-04T05:39:09;97004.12;;;-1.13;47.75
43480;BME280;29067;35.492;-97.520;2023-01-04T05:41:37;97006.24;;;-0.32;47.79
43480;BME280;29067;35.492;-97.520;2023-01-04T05:44:05;97006.88;;;-0.22;47.64
43480;BME280;29067;35.492;-97.520;2023-01-04T05:46:33;97014.64;;;-2.73;50.93
43480;BME280;29067;35.492;-97.520;2023-01-04T05:49:06;97007.17;;;-0.53;48.57
43480;BME280;29067;35.492;-97.520;2023-01-04T05:51:44;97007.66;;;-0.64;47.85
43480;BME280;29067;35.492;-97.520;2023-01-04T05:54:22;97006.80;;;0.17;47.30
43480;BME280;29067;35.492;-97.520;2023-01-04T05:56:56;97006.25;;;-0.43;47.81
43480;BME280;29067;35.492;-97.520;2023-01-04T05:59:24;97007.61;;;-1.79;49.91
43480;BME280;29067;35.492;-97.520;2023-01-04T06:01:52;97002.12;;;-1.14;50.92
43480;BME280;29067;35.492;-97.520;2023-01-04T06:04:20;97000.98;;;-0.78;50.59
43480;BME280;29067;35.492;-97.520;2023-01-04T06:06:48;97004.25;;;-1.21;49.74
43480;BME280;29067;35.492;-97.520;2023-01-04T06:09:16;97003.55;;;-1.04;49.98
43480;BME280;29067;35.492;-97.520;2023-01-04T06:11:44;97005.89;;;-0.99;49.58
43480;BME280;29067;35.492;-97.520;2023-01-04T06:14:13;97007.70;;;-1.55;50.10
43480;BME280;29067;35.492;-97.520;2023-01-04T06:16:45;97007.07;;;-0.02;48.59
43480;BME280;29067;35.492;-97.520;2023-01-04T06:19:14;97012.99;;;-0.74;49.68
43480;BME280;29067;35.492;-97.520;2023-01-04T06:21:42;97015.14;;;-0.71;49.87
43480;BME280;29067;35.492;-97.520;2023-01-04T06:24:17;97014.24;;;-1.03;49.39
43480;BME280;29067;35.492;-97.520;2023-01-04T06:26:45;97012.70;;;-0.88;49.37
43480;BME280;29067;35.492;-97.520;2023-01-04T06:29:13;97009.40;;;-0.05;48.48
43480;BME280;29067;35.492;-97.520;2023-01-04T06:31:46;97007.52;;;-0.25;47.39
43480;BME280;29067;35.492;-97.520;2023-01-04T06:34:14;97010.50;;;-1.15;49.00
43480;BME280;29067;35.492;-97.520;2023-01-04T06:36:43;97005.08;;;0.11;46.83
43480;BME280;29067;35.492;-97.520;2023-01-04T06:39:12;97005.13;;;-0.93;48.50
43480;BME280;29067;35.492;-97.520;2023-01-04T06:41:40;96999.65;;;0.08;47.30
43480;BME280;29067;35.492;-97.520;2023-01-04T06:44:08;96999.95;;;-1.27;48.59
43480;BME280;29067;35.492;-97.520;2023-01-04T06:46:36;97002.06;;;-1.13;48.47
43480;BME280;29067;35.492;-97.520;2023-01-04T06:49:04;97004.94;;;-1.60;49.42
43480;BME280;29067;35.492;-97.520;2023-01-04T06:51:32;97007.92;;;-1.69;49.30
43480;BME280;29067;35.492;-97.520;2023-01-04T06:54:00;97005.58;;;-1.50;50.15
43480;BME280;29067;35.492;-97.520;2023-01-04T06:56:28;97007.22;;;-1.12;48.63
43480;BME280;29067;35.492;-97.520;2023-01-04T06:58:56;97005.57;;;-1.39;49.47
43480;BME280;29067;35.492;-97.520;2023-01-04T07:01:24;97000.04;;;-0.52;47.45
43480;BME280;29067;35.492;-97.520;2023-01-04T07:03:52;97000.29;;;-1.22;48.95
43480;BME280;29067;35.492;-97.520;2023-01-04T07:06:20;96996.79;;;-1.23;48.22
43480;BME280;29067;35.492;-97.520;2023-01-04T07:08:55;97001.02;;;-0.97;48.81
43480;BME280;29067;35.492;-97.520;2023-01-04T07:11:23;97005.24;;;-2.83;51.64
43480;BME280;29067;35.492;-97.520;2023-01-04T07:13:51;97001.87;;;-1.05;50.44
43480;BME280;29067;35.492;-97.520;2023-01-04T07:16:20;97000.33;;;-1.64;49.68
43480;BME280;29067;35.492;-97.520;2023-01-04T07:18:48;96996.27;;;-1.66;50.39
43480;BME280;29067;35.492;-97.520;2023-01-04T07:21:17;96994.39;;;-1.93;51.86
43480;BME280;29067;35.492;-97.520;2023-01-04T07:23:45;96992.15;;;-1.78;51.37
43480;BME280;29067;35.492;-97.520;2023-01-04T07:26:13;96989.96;;;-1.46;50.39
43480;BME280;29067;35.492;-97.520;2023-01-04T07:28:41;96992.33;;;-1.24;50.44
43480;BME280;29067;35.492;-97.520;2023-01-04T07:31:09;97002.88;;;-3.23;52.80
43480;BME280;29067;35.492;-97.520;2023-01-04T07:33:37;97007.69;;;-2.74;51.94
43480;BME280;29067;35.492;-97.520;2023-01-04T07:36:11;97007.12;;;-1.55;50.95
43480;BME280;29067;35.492;-97.520;2023-01-04T07:38:39;97011.29;;;-2.64;52.75
43480;BME280;29067;35.492;-97.520;2023-01-04T07:41:12;97011.88;;;-2.42;52.12
43480;BME280;29067;35.492;-97.520;2023-01-04T07:43:41;97017.32;;;-1.54;50.60
43480;BME280;29067;35.492;-97.520;2023-01-04T07:46:14;97023.35;;;-0.72;49.64
43480;BME280;29067;35.492;-97.520;2023-01-04T07:48:49;97030.79;;;-0.75;48.54
43480;BME280;29067;35.492;-97.520;2023-01-04T07:51:23;97035.30;;;-0.94;48.26
43480;BME280;29067;35.492;-97.520;2023-01-04T07:53:52;97040.56;;;-2.45;50.86
43480;BME280;29067;35.492;-97.520;2023-01-04T07:56:20;97044.97;;;-2.53;50.52
43480;BME280;29067;35.492;-97.520;2023-01-04T07:58:49;97042.81;;;-2.37;51.05
43480;BME280;29067;35.492;-97.520;2023-01-04T08:01:18;97040.04;;;-0.41;49.71
43480;BME280;29067;35.492;-97.520;2023-01-04T08:03:46;97034.92;;;-1.25;48.79
43480;BME280;29067;35.492;-97.520;2023-01-04T08:06:15;97034.16;;;-0.36;49.21
43480;BME280;29067;35.492;-97.520;2023-01-04T08:08:43;97033.30;;;-0.93;50.11
43480;BME280;29067;35.492;-97.520;2023-01-04T08:11:14;97036.39;;;-1.96;49.64
43480;BME280;29067;35.492;-97.520;2023-01-04T08:13:42;97038.12;;;-1.24;48.89
43480;BME280;29067;35.492;-97.520;2023-01-04T08:16:19;97041.63;;;-2.20;50.32
43480;BME280;29067;35.492;-97.520;2023-01-04T08:18:47;97041.12;;;-0.66;48.61
43480;BME280;29067;35.492;-97.520;2023-01-04T08:21:15;97044.12;;;-0.35;47.93
43480;BME280;29067;35.492;-97.520;2023-01-04T08:23:43;97056.79;;;-0.45;47.62
43480;BME280;29067;35.492;-97.520;2023-01-04T08:26:13;97062.12;;;-1.16;48.89
43480;BME280;29067;35.492;-97.520;2023-01-04T08:28:41;97062.93;;;-1.88;50.18
43480;BME280;29067;35.492;-97.520;2023-01-04T08:31:12;97062.40;;;-1.70;49.73
43480;BME280;29067;35.492;-97.520;2023-01-04T08:33:43;97066.37;;;-2.16;51.39
43480;BME280;29067;35.492;-97.520;2023-01-04T08:36:18;97071.90;;;-2.77;51.72
43480;BME280;29067;35.492;-97.520;2023-01-04T08:38:48;97078.47;;;-3.63;52.97
43480;BME280;29067;35.492;-97.520;2023-01-04T08:41:18;97078.50;;;-2.11;51.40
43480;BME280;29067;35.492;-97.520;2023-01-04T08:43:47;97074.02;;;-1.88;51.94
43480;BME280;29067;35.492;-97.520;2023-01-04T08:46:15;97081.38;;;-1.76;51.05
43480;BME280;29067;35.492;-97.520;2023-01-04T08:48:43;97080.65;;;-1.67;50.52
43480;BME280;29067;35.492;-97.520;2023-01-04T08:51:12;97089.29;;;-1.67;50.46
43480;BME280;29067;35.492;-97.520;2023-01-04T08:53:42;97083.97;;;-1.99;49.95
43480;BME280;29067;35.492;-97.520;2023-01-04T08:56:10;97082.80;;;-1.73;49.33
43480;BME280;29067;35.492;-97.520;2023-01-04T08:58:39;97093.88;;;-0.70;48.73
43480;BME280;29067;35.492;-97.520;2023-01-04T09:01:09;97104.67;;;-1.68;50.41
43480;BME280;29067;35.492;-97.520;2023-01-04T09:03:37;97107.60;;;-2.36;50.84
43480;BME280;29067;35.492;-97.520;2023-01-04T09:06:09;97108.26;;;-2.57;52.05
43480;BME280;29067;35.492;-97.520;2023-01-04T09:08:38;97106.83;;;-1.48;50.23
43480;BME280;29067;35.492;-97.520;2023-01-04T09:11:08;97106.54;;;-2.48;51.44
43480;BME280;29067;35.492;-97.520;2023-01-04T09:13:42;97112.27;;;-2.23;50.78
43480;BME280;29067;35.492;-97.520;2023-01-04T09:16:13;97112.00;;;-1.05;49.55
43480;BME280;29067;35.492;-97.520;2023-01-04T09:18:41;97120.95;;;-1.53;50.27
43480;BME280;29067;35.492;-97.520;2023-01-04T09:21:12;97117.52;;;-0.87;48.97
43480;BME280;29067;35.492;-97.520;2023-01-04T09:23:42;97118.45;;;-0.86;47.64
43480;BME280;29067;35.492;-97.520;2023-01-04T09:26:13;97118.71;;;-2.53;49.58
43480;BME280;29067;35.492;-97.520;2023-01-04T09:28:46;97108.02;;;-0.64;48.52
43480;BME280;29067;35.492;-97.520;2023-01-04T09:31:22;97103.59;;;-0.87;47.76
43480;BME280;29067;35.492;-97.520;2023-01-04T09:33:52;97109.57;;;-1.66;48.24
43480;BME280;29067;35.492;-97.520;2023-01-04T09:36:26;97106.22;;;-2.75;50.94
43480;BME280;29067;35.492;-97.520;2023-01-04T09:38:59;97109.50;;;-2.03;49.78
43480;BME280;29067;35.492;-97.520;2023-01-04T09:41:30;97115.16;;;-2.79;50.77
43480;BME280;29067;35.492;-97.520;2023-01-04T09:44:03;97105.15;;;-0.47;48.25
43480;BME280;29067;35.492;-97.520;2023-01-04T09:46:46;97118.38;;;-1.77;48.46
43480;BME280;29067;35.492;-97.520;2023-01-04T09:49:20;97119.57;;;-1.98;49.14
43480;BME280;29067;35.492;-97.520;2023-01-04T09:51:54;97117.26;;;-1.22;47.96
43480;BME280;29067;35.492;-97.520;2023-01-04T09:54:29;97107.96;;;-0.79;46.66
43480;BME280;29067;35.492;-97.520;2023-01-04T09:57:00;97100.58;;;0.14;46.27
43480;BME280;29067;35.492;-97.520;2023-01-04T09:59:31;97099.92;;;-2.14;48.43
43480;BME280;29067;35.492;-97.520;2023-01-04T10:02:07;97100.71;;;-1.39;48.28
43480;BME280;29067;35.492;-97.520;2023-01-04T10:04:43;97102.08;;;-2.58;49.85
43480;BME280;29067;35.492;-97.520;2023-01-04T10:07:20;97098.94;;;-2.73;50.54
43480;BME280;29067;35.492;-97.520;2023-01-04T10:09:50;97102.48;;;-2.57;51.21
43480;BME280;29067;35.492;-97.520;2023-01-04T10:12:32;97091.72;;;-1.67;50.77
43480;BME280;29067;35.492;-97.520;2023-01-04T10:15:19;97090.59;;;-2.04;50.25
43480;BME280;29067;35.492;-97.520;2023-01-04T10:18:01;97089.10;;;-1.97;50.23
43480;BME280;29067;35.492;-97.520;2023-01-04T10:20:50;97089.53;;;-2.05;50.41
43480;BME280;29067;35.492;-97.520;2023-01-04T10:23:35;97091.22;;;-2.50;51.12
43480;BME280;29067;35.492;-97.520;2023-01-04T10:26:12;97090.19;;;-3.04;52.67
43480;BME280;29067;35.492;-97.520;2023-01-04T10:28:55;97094.42;;;-2.99;52.33
43480;BME280;29067;35.492;-97.520;2023-01-04T10:31:33;97096.24;;;-2.60;51.19
43480;BME280;29067;35.492;-97.520;2023-01-04T10:34:11;97104.87;;;-2.45;51.46
43480;BME280;29067;35.492;-97.520;2023-01-04T10:36:42;97106.34;;;-3.01;52.60
43480;BME280;29067;35.492;-97.520;2023-01-04T10:39:13;97111.81;;;-3.23;52.46
43480;BME280;29067;35.492;-97.520;2023-01-04T10:41:52;97114.67;;;-2.99;52.40
43480;BME280;29067;35.492;-97.520;2023-01-04T10:44:24;97113.91;;;-4.13;53.99
43480;BME280;29067;35.492;-97.520;2023-01-04T10:47:03;97112.36;;;-3.02;52.04
43480;BME280;29067;35.492;-97.520;2023-01-04T10:49:40;97111.95;;;-2.61;52.01
43480;BME280;29067;35.492;-97.520;2023-01-04T10:52:13;97109.52;;;-2.63;52.01
43480;BME280;29067;35.492;-97.520;2023-01-04T10:54:48;97115.32;;;-3.33;53.60
43480;BME280;29067;35.492;-97.520;2023-01-04T10:57:22;97119.31;;;-3.22;52.76
43480;BME280;29067;35.492;-97.520;2023-01-04T10:59:58;97125.47;;;-2.93;52.18
43480;BME280;29067;35.492;-97.520;2023-01-04T11:02:42;97126.80;;;-2.86;52.43
43480;BME280;29067;35.492;-97.520;2023-01-04T11:05:19;97130.47;;;-2.60;51.82
43480;BME280;29067;35.492;-97.520;2023-01-04T11:07:52;97130.07;;;-2.70;51.83
43480;BME280;29067;35.492;-97.520;2023-01-04T11:10:26;97132.22;;;-2.23;50.52
43480;BME280;29067;35.492;-97.520;2023-01-04T11:12:56;97127.38;;;-1.81;50.60
43480;BME280;29067;35.492;-97.520;2023-01-04T11:15:24;97134.91;;;-4.13;53.65
43480;BME280;29067;35.492;-97.520;2023-01-04T11:17:52;97131.34;;;-2.88;52.44
43480;BME280;29067;35.492;-97.520;2023-01-04T11:20:20;97130.25;;;-2.81;51.37
43480;BME280;29067;35.492;-97.520;2023-01-04T11:22:53;97131.66;;;-3.23;52.25
43480;BME280;29067;35.492;-97.520;2023-01-04T11:25:28;97129.89;;;-1.32;50.19
43480;BME280;29067;35.492;-97.520;2023-01-04T11:28:11;97134.58;;;-2.28;50.89
43480;BME280;29067;35.492;-97.520;2023-01-04T11:30:59;97144.37;;;-2.90;51.12
43480;BME280;29067;35.492;-97.520;2023-01-04T11:33:30;97156.74;;;-3.19;52.28
43480;BME280;29067;35.492;-97.520;2023-01-04T11:35:58;97157.79;;;-2.86;50.79
43480;BME280;29067;35.492;-97.520;2023-01-04T11:38:37;97160.71;;;-3.17;51.57
43480;BME280;29067;35.492;-97.520;2023-01-04T11:41:21;97160.23;;;-3.26;52.11
43480;BME280;29067;35.492;-97.520;2023-01-04T11:43:57;97160.78;;;-2.76;51.38
43480;BME280;29067;35.492;-97.520;2023-01-04T11:46:27;97160.56;;;-3.16;52.02
43480;BME280;29067;35.492;-97.520;2023-01-04T11:48:55;97160.79;;;-3.20;52.42
43480;BME280;29067;35.492;-97.520;2023-01-04T11:51:38;97162.21;;;-3.04;52.41
43480;BME280;29067;35.492;-97.520;2023-01-04T11:54:17;97165.97;;;-3.85;53.71
43480;BME280;29067;35.492;-97.520;2023-01-04T11:57:03;97169.38;;;-3.33;52.41
43480;BME280;29067;35.492;-97.520;2023-01-04T11:59:32;97172.78;;;-2.92;52.26
43480;BME280;29067;35.492;-97.520;2023-01-04T12:03:19;97170.02;;;-1.56;50.90
43480;BME280;29067;35.492;-97.520;2023-01-04T12:05:55;97167.48;;;-1.90;50.38
43480;BME280;29067;35.492;-97.520;2023-01-04T12:08:35;97168.47;;;-2.15;50.77
43480;BME280;29067;35.492;-97.520;2023-01-04T12:11:05;97169.89;;;-2.55;51.04
43480;BME280;29067;35.492;-97.520;2023-01-04T12:13:34;97168.86;;;-1.46;49.74
43480;BME280;29067;35.492;-97.520;2023-01-04T12:16:07;97171.37;;;-1.42;49.33
43480;BME280;29067;35.492;-97.520;2023-01-04T12:18:41;97179.44;;;-3.09;51.20
43480;BME280;29067;35.492;-97.520;2023-01-04T12:21:15;97182.78;;;-2.31;50.37
43480;BME280;29067;35.492;-97.520;2023-01-04T12:23:49;97187.58;;;-2.21;50.10
43480;BME280;29067;35.492;-97.520;2023-01-04T12:26:19;97189.25;;;-1.76;49.80
43480;BME280;29067;35.492;-97.520;2023-01-04T12:28:48;97194.66;;;-1.44;49.06
43480;BME280;29067;35.492;-97.520;2023-01-04T12:31:32;97201.21;;;-2.29;51.15
43480;BME280;29067;35.492;-97.520;2023-01-04T12:35:57;97208.92;;;-0.90;49.15
43480;BME280;29067;35.492;-97.520;2023-01-04T12:38:58;97215.36;;;-2.04;50.37
43480;BME280;29067;35.492;-97.520;2023-01-04T12:42:13;97209.62;;;0.41;47.31
43480;BME280;29067;35.492;-97.520;2023-01-04T12:45:17;97216.43;;;0.53;46.77
43480;BME280;29067;35.492;-97.520;2023-01-04T12:47:50;97228.75;;;-1.45;48.31
43480;BME280;29067;35.492;-97.520;2023-01-04T12:50:20;97237.22;;;-1.82;49.72
43480;BME280;29067;35.492;-97.520;2023-01-04T12:52:50;97244.59;;;-1.52;48.14
43480;BME280;29067;35.492;-97.520;2023-01-04T12:55:36;97258.92;;;-1.22;48.61
43480;BME280;29067;35.492;-97.520;2023-01-04T12:58:41;97266.70;;;-1.05;48.05
43480;BME280;29067;35.492;-97.520;2023-01-04T13:01:22;97265.13;;;-0.01;46.74
43480;BME280;29067;35.492;-97.520;2023-01-04T13:03:56;97276.31;;;-1.28;47.71
43480;BME280;29067;35.492;-97.520;2023-01-04T13:06:26;97284.10;;;-2.20;48.39
43480;BME280;29067;35.492;-97.520;2023-01-04T13:08:55;97283.18;;;-2.74;48.94
43480;BME280;29067;35.492;-97.520;2023-01-04T13:11:53;97290.42;;;-2.51;48.47
43480;BME280;29067;35.492;-97.520;2023-01-04T13:14:31;97304.69;;;-0.86;47.10
43480;BME280;29067;35.492;-97.520;2023-01-04T13:17:14;97315.34;;;-0.94;46.21